createdAt,value
2016-08-01T00:00:39.199Z,0
2016-08-01T00:01:39.147Z,0
2016-08-01T00:02:39.191Z,0
2016-08-01T00:03:39.206Z,0
2016-08-01T00:04:39.179Z,0
2016-08-01T00:05:39.200Z,0
2016-08-01T00:06:39.227Z,0
2016-08-01T00:07:39.208Z,0
2016-08-01T00:08:39.202Z,0
2016-08-01T00:09:39.271Z,0
2016-08-01T00:10:39.233Z,0
2016-08-01T00:11:39.202Z,0
2016-08-01T00:12:39.242Z,0
2016-08-01T00:13:39.290Z,0
2016-08-01T00:14:39.227Z,0
2016-08-01T00:15:39.292Z,0
2016-08-01T00:16:39.296Z,0
2016-08-01T00:17:39.263Z,0
2016-08-01T00:18:40.018Z,0
2016-08-01T00:19:39.297Z,0
2016-08-01T00:20:39.297Z,0
2016-08-01T00:21:39.322Z,0
2016-08-01T00:22:39.331Z,0
2016-08-01T00:23:39.356Z,0
2016-08-01T00:24:39.332Z,0
2016-08-01T00:25:39.374Z,0
2016-08-01T00:26:39.368Z,0
2016-08-01T00:27:39.380Z,0
2016-08-01T00:28:39.369Z,0
2016-08-01T00:29:39.419Z,0
2016-08-01T00:30:39.402Z,0
2016-08-01T00:31:39.418Z,0
2016-08-01T00:32:39.442Z,0
2016-08-01T00:33:39.453Z,0
2016-08-01T00:34:39.453Z,0
2016-08-01T00:35:39.429Z,0
2016-08-01T00:36:39.473Z,0
2016-08-01T00:37:39.462Z,0
2016-08-01T00:38:39.476Z,0
2016-08-01T00:39:39.475Z,0
2016-08-01T00:40:39.466Z,0
2016-08-01T00:41:39.501Z,0
2016-08-01T00:42:39.495Z,0
2016-08-01T00:43:39.484Z,0
2016-08-01T00:44:39.526Z,0
2016-08-01T00:45:39.526Z,0
2016-08-01T00:46:39.515Z,0
2016-08-01T00:47:39.562Z,0
2016-08-01T00:48:39.594Z,0
2016-08-01T00:49:39.512Z,0
2016-08-01T00:50:40.242Z,0
2016-08-01T00:51:39.569Z,0
2016-08-01T00:52:39.577Z,0
2016-08-01T00:53:39.579Z,0
2016-08-01T00:54:39.593Z,0
2016-08-01T00:55:39.595Z,0
2016-08-01T00:56:39.627Z,0
2016-08-01T00:57:39.625Z,0
2016-08-01T00:58:39.651Z,0
2016-08-01T00:59:39.647Z,0
2016-08-01T01:00:39.646Z,0
2016-08-01T01:01:39.651Z,0
2016-08-01T01:02:39.677Z,0
2016-08-01T01:03:39.678Z,0
2016-08-01T01:04:39.676Z,0
2016-08-01T01:05:39.693Z,0
2016-08-01T01:06:39.705Z,0
2016-08-01T01:07:39.718Z,0
2016-08-01T01:08:39.683Z,0
2016-08-01T01:09:39.727Z,0
2016-08-01T01:10:39.775Z,0
2016-08-01T01:11:39.746Z,0
2016-08-01T01:12:39.754Z,0
2016-08-01T01:13:39.776Z,0
2016-08-01T01:14:39.769Z,0
2016-08-01T01:15:39.750Z,0
2016-08-01T01:16:39.778Z,0
2016-08-01T01:17:39.781Z,0
2016-08-01T01:18:39.830Z,0
2016-08-01T01:19:39.818Z,0
2016-08-01T01:20:39.843Z,0
2016-08-01T01:21:39.806Z,0
2016-08-01T01:22:39.829Z,0
2016-08-01T01:23:39.842Z,0
2016-08-01T01:24:39.846Z,0
2016-08-01T01:25:39.845Z,0
2016-08-01T01:26:39.839Z,0
2016-08-01T01:27:39.909Z,0
2016-08-01T01:28:39.866Z,0
2016-08-01T01:29:39.876Z,0
2016-08-01T01:30:39.913Z,0
2016-08-01T01:31:39.863Z,0
2016-08-01T01:32:39.874Z,0
2016-08-01T01:34:39.891Z,0
2016-08-01T01:35:39.903Z,0
2016-08-01T01:36:39.947Z,0
2016-08-01T01:37:39.979Z,0
2016-08-01T01:38:39.943Z,0
2016-08-01T01:39:39.957Z,0
2016-08-01T01:40:40.673Z,0
2016-08-01T01:41:39.967Z,0
2016-08-01T01:42:39.975Z,0
2016-08-01T01:43:39.988Z,0
2016-08-01T01:44:39.998Z,0
2016-08-01T01:45:40.016Z,0
2016-08-01T01:46:40.037Z,0
2016-08-01T01:47:40.055Z,0
2016-08-01T01:49:40.050Z,0
2016-08-01T01:50:40.084Z,0
2016-08-01T01:51:40.055Z,0
2016-08-01T01:52:40.080Z,0
2016-08-01T01:53:40.086Z,0
2016-08-01T01:54:40.078Z,0
2016-08-01T01:55:40.069Z,0
2016-08-01T01:56:40.101Z,0
2016-08-01T01:57:40.091Z,0
2016-08-01T01:58:40.110Z,0
2016-08-01T01:59:40.103Z,0
2016-08-01T02:00:40.109Z,0
2016-08-01T02:01:40.141Z,0
2016-08-01T02:02:40.162Z,0
2016-08-01T02:03:40.160Z,0
2016-08-01T02:04:40.193Z,0
2016-08-01T02:05:40.194Z,0
2016-08-01T02:06:40.871Z,0
2016-08-01T02:07:40.209Z,0
2016-08-01T02:08:40.196Z,0
2016-08-01T02:09:40.178Z,0
2016-08-01T02:10:40.223Z,0
2016-08-01T02:11:40.212Z,0
2016-08-01T02:12:40.242Z,0
2016-08-01T02:13:40.233Z,0
2016-08-01T02:14:40.239Z,0
2016-08-01T02:15:40.235Z,0
2016-08-01T02:16:40.246Z,0
2016-08-01T02:17:40.258Z,0
2016-08-01T02:18:40.286Z,0
2016-08-01T02:19:40.314Z,0
2016-08-01T02:20:40.277Z,0
2016-08-01T02:21:40.317Z,0
2016-08-01T02:22:40.327Z,0
2016-08-01T02:23:40.292Z,0
2016-08-01T02:24:40.341Z,0
2016-08-01T02:25:41.049Z,0
2016-08-01T02:26:40.342Z,0
2016-08-01T02:27:40.346Z,0
2016-08-01T02:28:40.351Z,0
2016-08-01T02:29:40.377Z,0
2016-08-01T02:30:40.391Z,0
2016-08-01T02:31:40.405Z,0
2016-08-01T02:32:40.391Z,0
2016-08-01T02:33:40.392Z,0
2016-08-01T02:34:40.399Z,0
2016-08-01T02:35:40.409Z,0
2016-08-01T02:36:40.409Z,0
2016-08-01T02:37:40.437Z,0
2016-08-01T02:38:40.454Z,0
2016-08-01T02:39:40.437Z,0
2016-08-01T02:40:40.455Z,0
2016-08-01T02:41:40.481Z,0
2016-08-01T02:42:40.487Z,0
2016-08-01T02:43:40.517Z,0
2016-08-01T02:44:40.480Z,0
2016-08-01T02:45:40.490Z,0
2016-08-01T02:46:40.517Z,0
2016-08-01T02:47:40.508Z,0
2016-08-01T02:48:40.598Z,0
2016-08-01T02:49:40.528Z,0
2016-08-01T02:50:40.568Z,0
2016-08-01T02:51:40.548Z,0
2016-08-01T02:52:40.798Z,0
2016-08-01T02:53:40.563Z,0
2016-08-01T02:54:40.566Z,0
2016-08-01T02:55:40.579Z,0
2016-08-01T02:56:40.601Z,0
2016-08-01T02:57:40.569Z,0
2016-08-01T02:58:40.620Z,0
2016-08-01T02:59:40.597Z,0
2016-08-01T03:00:40.580Z,0
2016-08-01T03:01:40.632Z,0
2016-08-01T03:02:40.642Z,0
2016-08-01T03:03:40.623Z,0
2016-08-01T03:04:40.652Z,0
2016-08-01T03:05:40.638Z,0
2016-08-01T03:06:40.680Z,0
2016-08-01T03:07:40.663Z,0
2016-08-01T03:08:40.683Z,0
2016-08-01T03:09:40.716Z,0
2016-08-01T03:10:40.696Z,0
2016-08-01T03:11:40.717Z,0
2016-08-01T03:12:40.729Z,0
2016-08-01T03:13:41.433Z,0
2016-08-01T03:14:40.709Z,0
2016-08-01T03:15:40.740Z,0
2016-08-01T03:16:40.754Z,0
2016-08-01T03:17:40.775Z,0
2016-08-01T03:18:40.770Z,0
2016-08-01T03:19:40.776Z,0
2016-08-01T03:20:40.759Z,0
2016-08-01T03:21:40.797Z,0
2016-08-01T03:22:40.795Z,0
2016-08-01T03:23:40.803Z,0
2016-08-01T03:24:40.829Z,0
2016-08-01T03:25:40.811Z,0
2016-08-01T03:26:40.816Z,0
2016-08-01T03:27:40.862Z,0
2016-08-01T03:28:40.851Z,0
2016-08-01T03:29:40.888Z,0
2016-08-01T03:30:40.859Z,0
2016-08-01T03:31:40.865Z,0
2016-08-01T03:32:40.887Z,0
2016-08-01T03:33:40.882Z,0
2016-08-01T03:34:40.893Z,0
2016-08-01T03:35:40.881Z,0
2016-08-01T03:36:40.928Z,0
2016-08-01T03:37:40.896Z,0
2016-08-01T03:38:40.925Z,0
2016-08-01T03:39:40.927Z,0
2016-08-01T03:40:40.951Z,0
2016-08-01T03:41:40.938Z,0
2016-08-01T03:42:40.946Z,0
2016-08-01T03:43:40.978Z,0
2016-08-01T03:44:40.980Z,0
2016-08-01T03:45:40.992Z,0
2016-08-01T03:46:41.012Z,0
2016-08-01T03:47:40.992Z,0
2016-08-01T03:48:41.032Z,0
2016-08-01T03:49:41.074Z,0
2016-08-01T03:50:41.025Z,0
2016-08-01T03:51:41.038Z,0
2016-08-01T03:52:41.035Z,0
2016-08-01T03:53:41.065Z,0
2016-08-01T03:54:41.050Z,0
2016-08-01T03:55:41.080Z,0
2016-08-01T03:56:41.079Z,0
2016-08-01T03:57:41.076Z,0
2016-08-01T03:58:41.065Z,0
2016-08-01T03:59:41.100Z,0
2016-08-01T04:00:41.119Z,0
2016-08-01T04:01:41.106Z,0
2016-08-01T04:02:41.107Z,0
2016-08-01T04:03:41.139Z,0
2016-08-01T04:04:41.142Z,0
2016-08-01T04:05:41.154Z,0
2016-08-01T04:06:41.164Z,0
2016-08-01T04:07:41.160Z,0
2016-08-01T04:08:41.185Z,0
2016-08-01T04:09:41.156Z,0
2016-08-01T04:10:41.181Z,0
2016-08-01T04:11:41.202Z,0
2016-08-01T04:12:41.211Z,0
2016-08-01T04:13:41.178Z,0
2016-08-01T04:14:41.216Z,0
2016-08-01T04:15:41.207Z,0
2016-08-01T04:16:41.219Z,0
2016-08-01T04:17:41.228Z,0
2016-08-01T04:18:41.938Z,0
2016-08-01T04:19:41.276Z,0
2016-08-01T04:20:41.253Z,0
2016-08-01T04:21:41.255Z,0
2016-08-01T04:22:41.281Z,0
2016-08-01T04:23:41.293Z,0
2016-08-01T04:24:41.296Z,0
2016-08-01T04:25:41.303Z,0
2016-08-01T04:26:41.311Z,5
2016-08-01T04:27:41.331Z,5
2016-08-01T04:28:41.312Z,5
2016-08-01T04:29:41.354Z,5
2016-08-01T04:30:41.352Z,5
2016-08-01T04:31:42.027Z,5
2016-08-01T04:32:41.351Z,5
2016-08-01T04:33:41.360Z,5
2016-08-01T04:34:41.366Z,5
2016-08-01T04:35:41.402Z,5
2016-08-01T04:36:41.392Z,5
2016-08-01T04:37:41.432Z,5
2016-08-01T04:38:41.420Z,10
2016-08-01T04:39:41.407Z,10
2016-08-01T04:40:41.412Z,10
2016-08-01T04:41:41.435Z,10
2016-08-01T04:42:41.451Z,10
2016-08-01T04:43:41.471Z,10
2016-08-01T04:44:41.446Z,10
2016-08-01T04:45:41.463Z,10
2016-08-01T04:46:41.469Z,10
2016-08-01T04:47:41.512Z,10
2016-08-01T04:48:41.522Z,10
2016-08-01T04:49:41.554Z,10
2016-08-01T04:50:41.529Z,10
2016-08-01T04:51:41.515Z,10
2016-08-01T04:52:41.519Z,10
2016-08-01T04:53:41.539Z,10
2016-08-01T04:54:41.536Z,10
2016-08-01T04:55:41.557Z,10
2016-08-01T04:56:41.537Z,15
2016-08-01T04:57:41.545Z,15
2016-08-01T04:58:41.575Z,15
2016-08-01T04:59:41.597Z,15
2016-08-01T05:00:41.587Z,15
2016-08-01T05:01:41.573Z,15
2016-08-01T05:02:41.616Z,15
2016-08-01T05:03:41.599Z,10
2016-08-01T05:04:41.591Z,10
2016-08-01T05:05:41.667Z,10
2016-08-01T05:06:41.639Z,10
2016-08-01T05:07:41.637Z,10
2016-08-01T05:08:41.665Z,10
2016-08-01T05:09:41.688Z,10
2016-08-01T05:10:41.639Z,10
2016-08-01T05:11:41.665Z,10
2016-08-01T05:12:41.684Z,10
2016-08-01T05:13:41.690Z,10
2016-08-01T05:14:41.699Z,10
2016-08-01T05:15:41.692Z,10
2016-08-01T05:16:41.722Z,15
2016-08-01T05:17:41.734Z,15
2016-08-01T05:18:41.709Z,15
2016-08-01T05:19:41.748Z,15
2016-08-01T05:20:41.759Z,15
2016-08-01T05:21:41.781Z,15
2016-08-01T05:22:41.777Z,15
2016-08-01T05:23:41.761Z,15
2016-08-01T05:24:41.797Z,15
2016-08-01T05:25:41.791Z,15
2016-08-01T05:26:41.781Z,15
2016-08-01T05:27:41.810Z,15
2016-08-01T05:28:41.835Z,15
2016-08-01T05:29:41.823Z,15
2016-08-01T05:30:41.828Z,15
2016-08-01T05:31:41.835Z,15
2016-08-01T05:32:41.863Z,15
2016-08-01T05:33:41.866Z,15
2016-08-01T05:34:41.851Z,15
2016-08-01T05:35:41.885Z,15
2016-08-01T05:36:41.895Z,15
2016-08-01T05:37:41.877Z,15
2016-08-01T05:38:41.907Z,15
2016-08-01T05:39:41.905Z,15
2016-08-01T05:40:41.891Z,15
2016-08-01T05:41:41.926Z,15
2016-08-01T05:42:41.929Z,15
2016-08-01T05:43:41.912Z,15
2016-08-01T05:44:41.935Z,15
2016-08-01T05:45:41.968Z,15
2016-08-01T05:46:41.937Z,15
2016-08-01T05:47:41.962Z,10
2016-08-01T05:48:41.983Z,15
2016-08-01T05:49:42.037Z,15
2016-08-01T05:50:41.970Z,15
2016-08-01T05:51:42.003Z,15
2016-08-01T05:52:41.986Z,15
2016-08-01T05:53:42.024Z,15
2016-08-01T05:54:42.011Z,15
2016-08-01T05:55:42.019Z,15
2016-08-01T05:56:42.035Z,15
2016-08-01T05:57:42.080Z,10
2016-08-01T05:58:42.065Z,15
2016-08-01T05:59:42.054Z,15
2016-08-01T06:00:42.079Z,15
2016-08-01T06:01:42.068Z,15
2016-08-01T06:02:42.102Z,15
2016-08-01T06:03:42.108Z,15
2016-08-01T06:04:42.132Z,15
2016-08-01T06:05:42.099Z,10
2016-08-01T06:06:42.101Z,15
2016-08-01T06:07:42.126Z,15
2016-08-01T06:08:42.169Z,15
2016-08-01T06:09:42.164Z,15
2016-08-01T06:10:42.175Z,15
2016-08-01T06:11:42.188Z,15
2016-08-01T06:12:42.189Z,15
2016-08-01T06:13:42.175Z,15
2016-08-01T06:14:42.214Z,15
2016-08-01T06:15:42.209Z,20
2016-08-01T06:16:42.201Z,15
2016-08-01T06:17:42.209Z,20
2016-08-01T06:18:42.200Z,15
2016-08-01T06:19:42.202Z,15
2016-08-01T06:20:42.252Z,15
2016-08-01T06:21:42.224Z,15
2016-08-01T06:22:42.264Z,15
2016-08-01T06:23:42.252Z,20
2016-08-01T06:24:42.285Z,20
2016-08-01T06:25:42.277Z,20
2016-08-01T06:26:42.355Z,20
2016-08-01T06:27:42.302Z,15
2016-08-01T06:28:42.346Z,15
2016-08-01T06:29:42.330Z,20
2016-08-01T06:30:42.319Z,20
2016-08-01T06:31:42.334Z,15
2016-08-01T06:32:42.343Z,20
2016-08-01T06:33:42.385Z,20
2016-08-01T06:34:42.375Z,20
2016-08-01T06:35:42.371Z,25
2016-08-01T06:36:43.079Z,25
2016-08-01T06:37:42.370Z,25
2016-08-01T06:38:42.394Z,20
2016-08-01T06:39:42.404Z,20
2016-08-01T06:40:42.407Z,15
2016-08-01T06:41:42.413Z,15
2016-08-01T06:42:42.423Z,15
2016-08-01T06:43:42.416Z,20
2016-08-01T06:44:42.471Z,15
2016-08-01T06:45:42.453Z,20
2016-08-01T06:46:42.469Z,20
2016-08-01T06:47:42.461Z,25
2016-08-01T06:48:42.476Z,20
2016-08-01T06:50:42.462Z,25
2016-08-01T06:51:42.477Z,20
2016-08-01T06:52:42.467Z,20
2016-08-01T06:53:42.491Z,25
2016-08-01T06:54:42.496Z,20
2016-08-01T06:55:42.541Z,20
2016-08-01T06:56:42.559Z,20
2016-08-01T06:57:42.567Z,25
2016-08-01T06:58:42.558Z,20
2016-08-01T06:59:42.566Z,20
2016-08-01T07:00:42.553Z,25
2016-08-01T07:01:42.546Z,20
2016-08-01T07:02:42.576Z,20
2016-08-01T07:03:42.584Z,20
2016-08-01T07:04:42.619Z,20
2016-08-01T07:05:42.610Z,25
2016-08-01T07:06:42.622Z,25
2016-08-01T07:07:42.601Z,25
2016-08-01T07:08:42.640Z,25
2016-08-01T07:09:42.642Z,25
2016-08-01T07:10:42.675Z,25
2016-08-01T07:11:42.644Z,25
2016-08-01T07:12:42.653Z,25
2016-08-01T07:13:42.648Z,25
2016-08-01T07:14:42.678Z,25
2016-08-01T07:15:42.696Z,20
2016-08-01T07:16:42.698Z,20
2016-08-01T07:17:42.716Z,25
2016-08-01T07:18:42.699Z,20
2016-08-01T07:19:42.725Z,20
2016-08-01T07:20:42.727Z,20
2016-08-01T07:21:43.408Z,25
2016-08-01T07:22:42.774Z,25
2016-08-01T07:23:42.748Z,20
2016-08-01T07:24:42.734Z,20
2016-08-01T07:25:42.747Z,20
2016-08-01T07:26:42.736Z,20
2016-08-01T07:27:42.764Z,20
2016-08-01T07:28:42.770Z,20
2016-08-01T07:29:42.831Z,20
2016-08-01T07:30:42.796Z,20
2016-08-01T07:31:42.822Z,20
2016-08-01T07:32:42.825Z,20
2016-08-01T07:33:42.794Z,20
2016-08-01T07:34:42.814Z,20
2016-08-01T07:35:42.846Z,20
2016-08-01T07:36:42.840Z,20
2016-08-01T07:37:42.843Z,20
2016-08-01T07:38:42.881Z,15
2016-08-01T07:39:42.879Z,20
2016-08-01T07:40:42.862Z,20
2016-08-01T07:41:42.889Z,20
2016-08-01T07:42:42.890Z,20
2016-08-01T07:43:42.915Z,20
2016-08-01T07:44:43.590Z,20
2016-08-01T07:45:42.913Z,25
2016-08-01T07:46:42.928Z,25
2016-08-01T07:47:42.927Z,25
2016-08-01T07:48:42.967Z,25
2016-08-01T07:49:43.018Z,25
2016-08-01T07:50:42.942Z,20
2016-08-01T07:51:42.950Z,20
2016-08-01T07:52:42.954Z,25
2016-08-01T07:53:42.979Z,25
2016-08-01T07:54:42.996Z,25
2016-08-01T07:55:42.998Z,25
2016-08-01T07:56:42.993Z,25
2016-08-01T07:57:43.026Z,25
2016-08-01T07:58:43.016Z,25
2016-08-01T07:59:43.024Z,25
2016-08-01T08:00:43.046Z,25
2016-08-01T08:01:43.065Z,25
2016-08-01T08:02:43.047Z,25
2016-08-01T08:03:43.046Z,25
2016-08-01T08:04:43.068Z,25
2016-08-01T08:05:43.122Z,25
2016-08-01T08:06:43.105Z,25
2016-08-01T08:07:43.075Z,25
2016-08-01T08:08:43.075Z,25
2016-08-01T08:09:43.109Z,25
2016-08-01T08:10:43.083Z,25
2016-08-01T08:11:43.132Z,30
2016-08-01T08:12:43.104Z,30
2016-08-01T08:13:43.161Z,30
2016-08-01T08:14:43.154Z,30
2016-08-01T08:15:43.172Z,30
2016-08-01T08:16:43.136Z,30
2016-08-01T08:17:43.145Z,30
2016-08-01T08:18:43.205Z,30
2016-08-01T08:19:43.183Z,30
2016-08-01T08:20:43.205Z,30
2016-08-01T08:21:43.219Z,35
2016-08-01T08:22:43.242Z,35
2016-08-01T08:23:43.223Z,30
2016-08-01T08:24:43.196Z,30
2016-08-01T08:25:43.228Z,30
2016-08-01T08:26:43.231Z,30
2016-08-01T08:27:43.252Z,30
2016-08-01T08:28:43.225Z,30
2016-08-01T08:29:43.262Z,30
2016-08-01T08:30:43.286Z,30
2016-08-01T08:31:43.277Z,35
2016-08-01T08:32:43.285Z,35
2016-08-01T08:33:43.298Z,35
2016-08-01T08:34:43.289Z,35
2016-08-01T08:35:43.308Z,35
2016-08-01T08:36:43.304Z,35
2016-08-01T08:37:43.310Z,40
2016-08-01T08:38:43.321Z,40
2016-08-01T08:39:43.347Z,40
2016-08-01T08:40:43.338Z,40
2016-08-01T08:41:43.360Z,40
2016-08-01T08:42:43.354Z,40
2016-08-01T08:43:43.379Z,40
2016-08-01T08:44:43.407Z,40
2016-08-01T08:45:43.378Z,40
2016-08-01T08:46:43.393Z,45
2016-08-01T08:47:43.408Z,45
2016-08-01T08:48:43.388Z,45
2016-08-01T08:49:43.458Z,40
2016-08-01T08:50:43.428Z,40
2016-08-01T08:51:43.428Z,40
2016-08-01T08:52:43.450Z,40
2016-08-01T08:53:43.440Z,40
2016-08-01T08:54:43.429Z,40
2016-08-01T08:55:43.464Z,40
2016-08-01T08:56:43.459Z,40
2016-08-01T08:57:43.492Z,40
2016-08-01T08:58:43.488Z,40
2016-08-01T08:59:43.467Z,40
2016-08-01T09:00:44.234Z,40
2016-08-01T09:01:43.532Z,45
2016-08-01T09:02:43.542Z,45
2016-08-01T09:03:44.249Z,50
2016-08-01T09:04:43.565Z,50
2016-08-01T09:05:43.542Z,45
2016-08-01T09:06:44.242Z,40
2016-08-01T09:07:43.556Z,45
2016-08-01T09:08:43.583Z,45
2016-08-01T09:09:43.564Z,45
2016-08-01T09:10:43.599Z,30
2016-08-01T09:11:43.600Z,45
2016-08-01T09:12:43.627Z,45
2016-08-01T09:13:43.639Z,50
2016-08-01T09:14:43.620Z,50
2016-08-01T09:15:43.600Z,50
2016-08-01T09:16:43.653Z,35
2016-08-01T09:17:43.666Z,40
2016-08-01T09:18:43.683Z,45
2016-08-01T09:19:43.647Z,40
2016-08-01T09:20:43.674Z,40
2016-08-01T09:21:43.658Z,40
2016-08-01T09:22:43.697Z,35
2016-08-01T09:23:43.691Z,35
2016-08-01T09:24:43.687Z,30
2016-08-01T09:25:43.703Z,30
2016-08-01T09:26:43.726Z,50
2016-08-01T09:27:43.752Z,50
2016-08-01T09:28:43.757Z,50
2016-08-01T09:29:43.733Z,50
2016-08-01T09:30:43.750Z,45
2016-08-01T09:31:43.780Z,45
2016-08-01T09:32:43.750Z,45
2016-08-01T09:33:43.784Z,45
2016-08-01T09:34:43.772Z,45
2016-08-01T09:35:43.790Z,30
2016-08-01T09:36:43.777Z,20
2016-08-01T09:37:43.808Z,25
2016-08-01T09:38:43.800Z,30
2016-08-01T09:39:43.851Z,50
2016-08-01T09:40:43.850Z,50
2016-08-01T09:41:43.844Z,50
2016-08-01T09:42:43.860Z,50
2016-08-01T09:43:43.861Z,50
2016-08-01T09:44:43.883Z,50
2016-08-01T09:45:44.571Z,50
2016-08-01T09:46:43.877Z,45
2016-08-01T09:47:43.879Z,45
2016-08-01T09:48:43.897Z,45
2016-08-01T09:49:44.133Z,45
2016-08-01T09:50:43.908Z,35
2016-08-01T09:51:43.929Z,30
2016-08-01T09:52:44.614Z,50
2016-08-01T09:53:43.916Z,50
2016-08-01T09:54:43.946Z,50
2016-08-01T09:55:43.961Z,50
2016-08-01T09:56:43.939Z,50
2016-08-01T09:57:43.981Z,50
2016-08-01T09:58:43.994Z,50
2016-08-01T09:59:43.982Z,50
2016-08-01T10:00:43.998Z,55
2016-08-01T10:01:44.699Z,55
2016-08-01T10:02:44.026Z,55
2016-08-01T10:03:44.016Z,45
2016-08-01T10:04:44.044Z,60
2016-08-01T10:05:44.043Z,35
2016-08-01T10:06:44.031Z,30
2016-08-01T10:07:44.066Z,30
2016-08-01T10:08:44.039Z,60
2016-08-01T10:09:44.062Z,60
2016-08-01T10:10:44.060Z,50
2016-08-01T10:11:44.084Z,35
2016-08-01T10:12:44.097Z,55
2016-08-01T10:13:44.104Z,45
2016-08-01T10:14:44.111Z,65
2016-08-01T10:15:44.840Z,35
2016-08-01T10:16:44.132Z,35
2016-08-01T10:17:44.115Z,35
2016-08-01T10:18:44.150Z,65
2016-08-01T10:19:44.130Z,60
2016-08-01T10:20:44.200Z,55
2016-08-01T10:21:44.169Z,55
2016-08-01T10:22:44.147Z,50
2016-08-01T10:23:44.169Z,50
2016-08-01T10:24:44.196Z,55
2016-08-01T10:25:44.227Z,55
2016-08-01T10:26:44.218Z,55
2016-08-01T10:27:44.220Z,55
2016-08-01T10:28:44.250Z,55
2016-08-01T10:29:44.234Z,55
2016-08-01T10:30:44.254Z,55
2016-08-01T10:31:44.268Z,55
2016-08-01T10:32:44.253Z,55
2016-08-01T10:33:44.298Z,60
2016-08-01T10:34:44.289Z,65
2016-08-01T10:35:44.305Z,60
2016-08-01T10:36:44.450Z,60
2016-08-01T10:37:44.290Z,60
2016-08-01T10:38:44.296Z,60
2016-08-01T10:39:44.333Z,60
2016-08-01T10:40:44.331Z,60
2016-08-01T10:41:44.340Z,60
2016-08-01T10:42:44.355Z,65
2016-08-01T10:43:44.325Z,65
2016-08-01T10:44:44.347Z,60
2016-08-01T10:45:44.389Z,65
2016-08-01T10:46:44.368Z,65
2016-08-01T10:47:44.378Z,70
2016-08-01T10:48:45.132Z,70
2016-08-01T10:49:44.421Z,75
2016-08-01T10:50:44.424Z,75
2016-08-01T10:51:44.423Z,70
2016-08-01T10:52:44.397Z,70
2016-08-01T10:53:44.452Z,65
2016-08-01T10:54:44.440Z,65
2016-08-01T10:55:44.460Z,65
2016-08-01T10:56:44.454Z,70
2016-08-01T10:57:44.451Z,70
2016-08-01T10:58:44.496Z,45
2016-08-01T10:59:44.501Z,75
2016-08-01T11:00:44.498Z,75
2016-08-01T11:01:44.522Z,50
2016-08-01T11:02:44.482Z,50
2016-08-01T11:03:44.519Z,50
2016-08-01T11:04:44.509Z,45
2016-08-01T11:05:44.516Z,70
2016-08-01T11:06:44.560Z,45
2016-08-01T11:07:44.575Z,45
2016-08-01T11:08:44.565Z,45
2016-08-01T11:09:44.602Z,55
2016-08-01T11:10:45.307Z,70
2016-08-01T11:11:44.553Z,70
2016-08-01T11:12:44.572Z,75
2016-08-01T11:13:44.607Z,75
2016-08-01T11:14:44.633Z,50
2016-08-01T11:15:44.614Z,55
2016-08-01T11:16:44.660Z,55
2016-08-01T11:17:44.633Z,60
2016-08-01T11:18:44.650Z,55
2016-08-01T11:19:44.650Z,55
2016-08-01T11:20:44.675Z,50
2016-08-01T11:21:44.646Z,50
2016-08-01T11:22:44.684Z,50
2016-08-01T11:23:44.661Z,55
2016-08-01T11:24:44.668Z,80
2016-08-01T11:25:44.719Z,50
2016-08-01T11:26:44.685Z,50
2016-08-01T11:27:44.720Z,50
2016-08-01T11:28:44.712Z,45
2016-08-01T11:29:44.731Z,40
2016-08-01T11:30:44.717Z,75
2016-08-01T11:31:44.733Z,75
2016-08-01T11:32:44.759Z,75
2016-08-01T11:33:44.730Z,75
2016-08-01T11:34:44.769Z,75
2016-08-01T11:36:44.773Z,75
2016-08-01T11:37:44.800Z,80
2016-08-01T11:38:44.807Z,75
2016-08-01T11:39:44.814Z,75
2016-08-01T11:40:44.823Z,75
2016-08-01T11:41:44.807Z,50
2016-08-01T11:42:44.836Z,45
2016-08-01T11:43:44.829Z,70
2016-08-01T11:44:44.818Z,70
2016-08-01T11:45:44.857Z,70
2016-08-01T11:46:45.561Z,70
2016-08-01T11:47:44.889Z,70
2016-08-01T11:48:44.860Z,70
2016-08-01T11:49:44.899Z,70
2016-08-01T11:50:45.102Z,65
2016-08-01T11:51:44.922Z,60
2016-08-01T11:52:44.909Z,65
2016-08-01T11:53:44.880Z,40
2016-08-01T11:54:44.918Z,60
2016-08-01T11:55:44.935Z,70
2016-08-01T11:56:45.610Z,75
2016-08-01T11:57:44.935Z,70
2016-08-01T11:58:45.692Z,70
2016-08-01T11:59:44.961Z,70
2016-08-01T12:00:44.998Z,60
2016-08-01T12:01:44.979Z,65
2016-08-01T12:02:44.969Z,65
2016-08-01T12:03:44.985Z,60
2016-08-01T12:04:45.010Z,60
2016-08-01T12:05:45.023Z,60
2016-08-01T12:06:45.021Z,65
2016-08-01T12:07:45.014Z,65
2016-08-01T12:08:45.027Z,65
2016-08-01T12:09:45.008Z,65
2016-08-01T12:10:45.047Z,70
2016-08-01T12:11:45.069Z,70
2016-08-01T12:12:45.066Z,65
2016-08-01T12:13:45.061Z,65
2016-08-01T12:14:45.065Z,65
2016-08-01T12:15:45.067Z,65
2016-08-01T12:16:45.092Z,65
2016-08-01T12:17:45.096Z,65
2016-08-01T12:18:45.143Z,65
2016-08-01T12:19:45.115Z,70
2016-08-01T12:20:45.151Z,70
2016-08-01T12:21:45.120Z,70
2016-08-01T12:22:45.138Z,70
2016-08-01T12:23:45.155Z,70
2016-08-01T12:24:45.191Z,65
2016-08-01T12:25:45.167Z,65
2016-08-01T12:26:45.172Z,65
2016-08-01T12:27:45.204Z,35
2016-08-01T12:28:45.165Z,60
2016-08-01T12:29:45.205Z,70
2016-08-01T12:30:45.217Z,70
2016-08-01T12:31:45.192Z,70
2016-08-01T12:32:45.221Z,70
2016-08-01T12:33:45.231Z,70
2016-08-01T12:34:45.234Z,75
2016-08-01T12:35:45.237Z,45
2016-08-01T12:36:45.256Z,55
2016-08-01T12:37:45.267Z,70
2016-08-01T12:38:45.260Z,75
2016-08-01T12:39:45.264Z,75
2016-08-01T12:40:45.292Z,75
2016-08-01T12:41:45.295Z,50
2016-08-01T12:42:45.293Z,50
2016-08-01T12:43:45.268Z,50
2016-08-01T12:44:45.302Z,50
2016-08-01T12:45:45.334Z,75
2016-08-01T12:46:45.303Z,50
2016-08-01T12:47:45.312Z,50
2016-08-01T12:48:45.366Z,55
2016-08-01T12:49:45.353Z,75
2016-08-01T12:50:45.391Z,55
2016-08-01T12:51:46.073Z,50
2016-08-01T12:52:45.386Z,55
2016-08-01T12:53:45.352Z,50
2016-08-01T12:54:45.415Z,80
2016-08-01T12:55:45.388Z,70
2016-08-01T12:56:45.415Z,50
2016-08-01T12:57:45.418Z,35
2016-08-01T12:58:45.438Z,35
2016-08-01T12:59:45.465Z,40
2016-08-01T13:00:45.463Z,65
2016-08-01T13:01:45.443Z,65
2016-08-01T13:02:45.428Z,65
2016-08-01T13:03:45.456Z,65
2016-08-01T13:04:45.499Z,50
2016-08-01T13:05:45.504Z,75
2016-08-01T13:06:45.479Z,75
2016-08-01T13:07:45.461Z,75
2016-08-01T13:08:45.501Z,70
2016-08-01T13:09:45.501Z,70
2016-08-01T13:10:45.484Z,55
2016-08-01T13:11:45.534Z,65
2016-08-01T13:12:45.536Z,40
2016-08-01T13:13:45.554Z,40
2016-08-01T13:14:45.542Z,40
2016-08-01T13:15:46.251Z,40
2016-08-01T13:16:45.557Z,40
2016-08-01T13:17:45.554Z,40
2016-08-01T13:18:45.560Z,40
2016-08-01T13:19:46.258Z,35
2016-08-01T13:20:46.317Z,35
2016-08-01T13:21:45.592Z,55
2016-08-01T13:22:45.619Z,40
2016-08-01T13:23:45.602Z,35
2016-08-01T13:24:45.627Z,50
2016-08-01T13:25:45.666Z,40
2016-08-01T13:26:45.636Z,35
2016-08-01T13:27:45.672Z,45
2016-08-01T13:28:45.672Z,45
2016-08-01T13:29:45.674Z,45
2016-08-01T13:30:45.690Z,45
2016-08-01T13:31:45.709Z,45
2016-08-01T13:32:45.696Z,65
2016-08-01T13:33:45.719Z,65
2016-08-01T13:34:45.682Z,60
2016-08-01T13:35:45.715Z,50
2016-08-01T13:36:45.750Z,50
2016-08-01T13:37:45.700Z,50
2016-08-01T13:38:45.721Z,50
2016-08-01T13:39:45.753Z,50
2016-08-01T13:40:45.725Z,50
2016-08-01T13:41:45.743Z,50
2016-08-01T13:42:45.773Z,65
2016-08-01T13:43:45.764Z,60
2016-08-01T13:44:45.801Z,60
2016-08-01T13:45:45.766Z,55
2016-08-01T13:46:45.791Z,55
2016-08-01T13:47:45.814Z,60
2016-08-01T13:48:45.822Z,70
2016-08-01T13:49:45.817Z,60
2016-08-01T13:50:45.834Z,55
2016-08-01T13:51:45.822Z,55
2016-08-01T13:52:45.835Z,50
2016-08-01T13:53:45.825Z,45
2016-08-01T13:54:45.879Z,50
2016-08-01T13:55:45.882Z,55
2016-08-01T13:56:45.889Z,50
2016-08-01T13:57:45.874Z,45
2016-08-01T13:58:45.898Z,45
2016-08-01T13:59:45.885Z,40
2016-08-01T14:00:45.928Z,35
2016-08-01T14:01:45.928Z,30
2016-08-01T14:02:45.901Z,25
2016-08-01T14:03:45.896Z,25
2016-08-01T14:04:45.936Z,25
2016-08-01T14:05:45.954Z,25
2016-08-01T14:06:45.965Z,25
2016-08-01T14:07:45.992Z,30
2016-08-01T14:08:45.996Z,30
2016-08-01T14:09:46.012Z,25
2016-08-01T14:10:45.964Z,25
2016-08-01T14:11:46.011Z,25
2016-08-01T14:12:46.018Z,20
2016-08-01T14:13:46.027Z,20
2016-08-01T14:14:45.994Z,20
2016-08-01T14:15:46.061Z,20
2016-08-01T14:16:46.027Z,20
2016-08-01T14:17:46.063Z,20
2016-08-01T14:18:46.068Z,20
2016-08-01T14:19:46.056Z,20
2016-08-01T14:20:46.067Z,25
2016-08-01T14:21:46.098Z,30
2016-08-01T14:22:46.126Z,30
2016-08-01T14:23:46.116Z,30
2016-08-01T14:24:46.126Z,35
2016-08-01T14:25:46.113Z,40
2016-08-01T14:26:46.129Z,50
2016-08-01T14:27:46.138Z,50
2016-08-01T14:28:46.142Z,50
2016-08-01T14:29:46.182Z,55